Tredegar, United Kingdom
Current Conditions -  °F | °C
As of 9:50 PM on Sunday 25 Jan 2015 (Local Time) from EGFF Reporting Station
Haze Haze  
Wind Chill: 43°   Ceiling: 200
Heat Index: 48°   Visibility: 0.62mi
Dew Point: 46°   Wind: 13mph
Humidity: 93%   Direction: 260°W
Pressure: 30.3"   Gusts: NA
Location:  51.77°N, 3.25°W
Report Text: EGFF 252150Z AUTO 26011KT 1000 R30/P1500 BR OVC002 09/08 Q1026 RERA
Loading
Personal Weather Stations






























Interactive Weather Map New forecast layout! Learn more

10-Day Weather Forecast

Advertisements
Track Severe Weather on mobile